Главная страница
METAR-TAF:

METAR-TAF

Аэропорты :

Cape May County Airport

Вайлдвуд, Нью-Джерси, США

широта: 39-01N, долгота: 074-55W, высота над уровнем моря: 7 м

Текущие метеонаблюдения

Эта сводка был подготовлена 8 часа и 47 минут назад, в 04:55 UTC
Ветер 4 Узел от восточно-северо-восточный
Температура 22°C
Влажность 88%
Давление 1020 hPa
Видимость: 16.1 км
Рассеянная облачность на высоте 7000 фута

METAR: KWWD 210455Z AUTO 06004KT 10SM BKN070 22/20 A3012 RMK AO2 SLP202 T02170200 402500211 TSNO

Время: 09:42 (13:42 UTC)


TAF: отсутствует

Метеонаблюдения и прогнозы для более 4000 аэропортов (сводки METAR и TAF).

Имеющиеся станции представлены на карте желтыми и красными точками.

Чтобы увидеть название станции, наведите на нее мышь.

Затем щелкните, чтобы увидеть метеонаблюдения и метеопрогнозы.

Управление картой: чтобы увеличить масштаб, щелкните зеленые кнопки с черным крестиком; чтобы уменьшить масштаб, щелкните зеленую кнопку с тире; для просмотра соседних карт щелкайте зеленые стрелки.


METAR-TAF: